createdAt,value
2023-01-29T00:00:21.981Z,97820.88
2023-01-29T00:02:48.781Z,97805.69
2023-01-29T00:05:27.066Z,97819.91
2023-01-29T00:07:54.306Z,97822.75
2023-01-29T00:10:21.040Z,97815.72
2023-01-29T00:12:47.611Z,97808.94
2023-01-29T00:15:14.163Z,97825.72
2023-01-29T00:17:40.709Z,97813.28
2023-01-29T00:20:07.595Z,97820.59
2023-01-29T00:22:34.119Z,97815.72
2023-01-29T00:25:00.687Z,97819.25
2023-01-29T00:27:27.253Z,97794.97
2023-01-29T00:30:13.097Z,97818.81
2023-01-29T00:32:40.745Z,97815.16
2023-01-29T00:35:08.759Z,97810.53
2023-01-29T00:37:35.387Z,97783.31
2023-01-29T00:40:02.385Z,97809.34
2023-01-29T00:42:47.639Z,97806.38
2023-01-29T00:45:14.302Z,97800.66
2023-01-29T00:47:40.945Z,97786.03
2023-01-29T00:50:10.529Z,97802.84
2023-01-29T00:52:37.791Z,97802.84
2023-01-29T00:55:06.027Z,97783.31
2023-01-29T00:57:34.304Z,97797.13
2023-01-29T01:00:01.672Z,97802.97
2023-01-29T01:02:47.397Z,97799.56
2023-01-29T01:05:19.750Z,97794.44
2023-01-29T01:07:51.530Z,97794.69
2023-01-29T01:10:33.111Z,97793.88
2023-01-29T01:13:02.815Z,97806.75
2023-01-29T01:15:40.022Z,97793.88
2023-01-29T01:18:06.812Z,97793.09
2023-01-29T01:20:35.495Z,97783.31
2023-01-29T01:23:02.871Z,97770.97
2023-01-29T01:25:29.421Z,97787.38
2023-01-29T01:30:25.458Z,97788.59
2023-01-29T01:32:52.783Z,97766.25
2023-01-29T01:35:19.445Z,97757.03
2023-01-29T01:37:46.032Z,97777.91
2023-01-29T01:40:21.375Z,97758.94
2023-01-29T01:42:49.894Z,97755.69
2023-01-29T01:45:31.973Z,97773.56
2023-01-29T01:48:18.832Z,97771.50
2023-01-29T01:50:49.917Z,97763.81
2023-01-29T01:53:21.755Z,97768.28
2023-01-29T01:55:52.691Z,97762.84
2023-01-29T01:58:26.308Z,97751.50
2023-01-29T02:00:53.403Z,97733.84
2023-01-29T02:03:41.259Z,97757.69
2023-01-29T02:06:28.426Z,97762.56
2023-01-29T02:09:18.574Z,97769.50
2023-01-29T02:11:45.222Z,97758.94
2023-01-29T02:14:12.323Z,97777.09
2023-01-29T02:16:39.344Z,97778.28
2023-01-29T02:19:16.358Z,97768.94
2023-01-29T02:22:12.699Z,97774.78
2023-01-29T02:25:09.676Z,97783.03
2023-01-29T02:27:48.177Z,97771.38
2023-01-29T02:30:38.010Z,97771.53
2023-01-29T02:33:09.695Z,97791.16
2023-01-29T02:35:48.547Z,97787.78
2023-01-29T02:38:36.392Z,97783.72
2023-01-29T02:41:16.345Z,97779.94
2023-01-29T02:43:56.118Z,97785.47
2023-01-29T02:46:45.359Z,97785.75
2023-01-29T02:49:23.331Z,97762.16
2023-01-29T02:52:00.025Z,97768.28
2023-01-29T02:54:39.849Z,97784.13
2023-01-29T02:57:17.730Z,97760.53
2023-01-29T02:59:50.733Z,97771.38
2023-01-29T03:02:26.029Z,97774.72
2023-01-29T03:05:00.940Z,97746.31
2023-01-29T03:07:46.150Z,97773.38
2023-01-29T03:10:33.323Z,97778.94
2023-01-29T03:13:12.686Z,97771.63
2023-01-29T03:15:46.945Z,97749.13
2023-01-29T03:19:14.119Z,97769.72
2023-01-29T03:21:51.417Z,97700.09
2023-01-29T03:24:43.288Z,97756.47
2023-01-29T03:27:31.174Z,97737.38
2023-01-29T03:30:19.028Z,97760.13
2023-01-29T03:32:51.949Z,97733.47
2023-01-29T03:35:36.574Z,97749.16
2023-01-29T03:38:07.384Z,97749.41
2023-01-29T03:40:46.005Z,97739.81
2023-01-29T03:43:33.848Z,97738.72
2023-01-29T03:46:19.119Z,97761.06
2023-01-29T03:48:51.760Z,97770.56
2023-01-29T03:51:30.138Z,97759.19
2023-01-29T03:54:01.394Z,97750.78
2023-01-29T03:56:39.156Z,97791.16
2023-01-29T03:59:38.808Z,97773.97
2023-01-29T04:02:48.910Z,97781.03
2023-01-29T04:05:20.118Z,97778.72
2023-01-29T04:08:05.367Z,97804.19
2023-01-29T04:10:35.836Z,97776.69
2023-01-29T04:13:11.173Z,97784.81
2023-01-29T04:15:46.140Z,97772.22
2023-01-29T04:18:13.227Z,97761.09
2023-01-29T04:21:16.150Z,97783.84
2023-01-29T04:23:43.354Z,97798.06
2023-01-29T04:26:41.262Z,97794.44
2023-01-29T04:29:22.897Z,97801.75
2023-01-29T04:32:08.814Z,97743.22
2023-01-29T04:35:08.847Z,97807.44
2023-01-29T04:37:51.998Z,97790.06
2023-01-29T04:40:37.629Z,97808.78
2023-01-29T04:43:21.785Z,97806.34
2023-01-29T04:46:03.686Z,97800.75
2023-01-29T04:48:58.378Z,97807.03
2023-01-29T04:51:35.737Z,97771.91
2023-01-29T04:54:11.032Z,97795.22
2023-01-29T04:56:55.153Z,97812.28
2023-01-29T04:59:30.351Z,97792.75
2023-01-29T05:01:59.641Z,97791.41
2023-01-29T05:04:27.882Z,97799.97
2023-01-29T05:06:55.920Z,97762.81
2023-01-29T05:09:23.246Z,97770.28
2023-01-29T05:11:50.257Z,97785.31
2023-01-29T05:14:19.724Z,97786.53
2023-01-29T05:16:53.510Z,97752.66
2023-01-29T05:19:20.042Z,97779.78
2023-01-29T05:21:49.274Z,97766.34
2023-01-29T05:24:26.344Z,97757.41
2023-01-29T05:27:13.298Z,97760.94
2023-01-29T05:29:46.619Z,97778.41
2023-01-29T05:32:13.897Z,97772.34
2023-01-29T05:34:40.380Z,97773.44
2023-01-29T05:37:07.089Z,97758.09
2023-01-29T05:39:33.537Z,97755.91
2023-01-29T05:42:00.258Z,97744.94
2023-01-29T05:44:27.388Z,97760.91
2023-01-29T05:46:53.862Z,97791.66
2023-01-29T05:49:20.645Z,97780.72
2023-01-29T05:51:47.119Z,97766.91
2023-01-29T05:54:14.173Z,97750.63
2023-01-29T05:56:40.713Z,97779.59
2023-01-29T05:59:07.436Z,97762.38
2023-01-29T06:01:33.932Z,97789.25
2023-01-29T06:04:00.416Z,97783.44
2023-01-29T06:06:27.019Z,97775.59
2023-01-29T06:08:53.496Z,97759.16
2023-01-29T06:11:20.593Z,97753.19
2023-01-29T06:13:48.143Z,97727.22
2023-01-29T06:16:15.229Z,97739.00
2023-01-29T06:18:42.523Z,97754.31
2023-01-29T06:21:11.754Z,97755.41
2023-01-29T06:23:38.485Z,97737.25
2023-01-29T06:26:11.989Z,97722.34
2023-01-29T06:28:39.106Z,97706.63
2023-01-29T06:33:53.436Z,97736.44
2023-01-29T06:36:19.896Z,97736.84
2023-01-29T06:38:47.311Z,97729.94
2023-01-29T06:41:17.719Z,97713.41
2023-01-29T06:43:45.457Z,97731.69
2023-01-29T06:46:12.007Z,97720.88
2023-01-29T06:48:38.448Z,97740.91
2023-01-29T06:51:06.645Z,97748.38
2023-01-29T06:53:34.582Z,97756.34
2023-01-29T06:56:01.118Z,97747.53
2023-01-29T06:58:27.611Z,97754.88
2023-01-29T07:00:54.164Z,97750.41
2023-01-29T07:03:20.827Z,97739.16
2023-01-29T07:05:52.334Z,97751.72
2023-01-29T07:08:19.511Z,97765.69
2023-01-29T07:10:45.995Z,97785.63
2023-01-29T07:13:12.454Z,97784.94
2023-01-29T07:15:38.922Z,97774.22
2023-01-29T07:18:11.943Z,97783.06
2023-01-29T07:20:40.302Z,97790.13
2023-01-29T07:23:07.398Z,97768.69
2023-01-29T07:25:34.687Z,97786.19
2023-01-29T07:28:02.159Z,97790.63
2023-01-29T07:30:28.852Z,97774.91
2023-01-29T07:32:55.459Z,97765.81
2023-01-29T07:35:22.204Z,97775.56
2023-01-29T07:37:50.251Z,97795.78
2023-01-29T07:40:17.210Z,97756.63
2023-01-29T07:42:44.205Z,97748.91
2023-01-29T07:45:11.642Z,97791.19
2023-01-29T07:47:41.101Z,97787.09
2023-01-29T07:50:07.907Z,97747.03
2023-01-29T07:52:34.753Z,97774.25
2023-01-29T07:55:01.264Z,97781.94
2023-01-29T07:57:27.857Z,97785.75
2023-01-29T07:59:54.369Z,97785.09
2023-01-29T08:02:20.900Z,97760.81
2023-01-29T08:04:47.382Z,97762.56
2023-01-29T08:07:13.905Z,97773.97
2023-01-29T08:09:40.394Z,97775.59
2023-01-29T08:12:07.059Z,97792.94
2023-01-29T08:14:33.497Z,97755.13
2023-01-29T08:16:59.967Z,97785.38
2023-01-29T08:19:27.155Z,97765.44
2023-01-29T08:21:53.646Z,97787.22
2023-01-29T08:24:20.235Z,97812.84
2023-01-29T08:26:46.798Z,97819.50
2023-01-29T08:29:13.492Z,97808.81
2023-01-29T08:31:40.001Z,97797.41
2023-01-29T08:34:06.513Z,97789.03
2023-01-29T08:36:34.472Z,97791.31
2023-01-29T08:39:00.951Z,97787.38
2023-01-29T08:41:27.463Z,97813.94
2023-01-29T08:43:53.992Z,97802.28
2023-01-29T08:46:20.478Z,97784.66
2023-01-29T08:48:46.984Z,97822.75
2023-01-29T08:51:13.669Z,97818.56
2023-01-29T08:53:40.101Z,97787.00
2023-01-29T08:56:06.546Z,97844.00
2023-01-29T08:58:33.065Z,97807.44
2023-01-29T09:01:13.167Z,97850.53
2023-01-29T09:03:41.187Z,97857.97
2023-01-29T09:06:10.652Z,97850.00
2023-01-29T09:08:37.410Z,97865.19
2023-01-29T09:11:03.985Z,97860.03
2023-01-29T09:13:30.596Z,97865.75
2023-01-29T09:16:01.700Z,97850.44
2023-01-29T09:18:29.716Z,97873.06
2023-01-29T09:20:56.184Z,97852.84
2023-01-29T09:23:22.857Z,97854.22
2023-01-29T09:25:49.568Z,97823.16
2023-01-29T09:28:17.653Z,97857.19
2023-01-29T09:30:44.883Z,97846.06
2023-01-29T09:33:11.562Z,97819.97
2023-01-29T09:35:40.981Z,97834.50
2023-01-29T09:38:08.453Z,97837.22
2023-01-29T09:41:23.274Z,97827.72
2023-01-29T09:43:55.174Z,97840.44
2023-01-29T09:46:36.810Z,97838.25
2023-01-29T09:49:14.780Z,97791.56
2023-01-29T09:51:45.895Z,97824.75
2023-01-29T09:54:16.414Z,97815.50
2023-01-29T09:56:46.016Z,97835.75
2023-01-29T09:59:17.297Z,97793.19
2023-01-29T10:02:21.998Z,97833.69
2023-01-29T10:05:13.284Z,97813.94
2023-01-29T10:08:20.614Z,97819.25
2023-01-29T10:11:02.052Z,97827.22
2023-01-29T10:13:48.006Z,97823.22
2023-01-29T10:16:55.741Z,97811.53
2023-01-29T10:19:50.503Z,97786.50
2023-01-29T10:22:35.115Z,97792.31
2023-01-29T10:25:06.745Z,97775.81
2023-01-29T10:27:38.505Z,97796.25
2023-01-29T10:30:37.063Z,97797.97
2023-01-29T10:33:06.832Z,97808.25
2023-01-29T10:35:40.940Z,97792.38
2023-01-29T10:38:33.606Z,97802.13
2023-01-29T10:41:19.151Z,97772.44
2023-01-29T10:44:20.703Z,97787.06
2023-01-29T10:47:07.879Z,97773.94
2023-01-29T10:49:40.213Z,97777.94
2023-01-29T10:52:25.096Z,97765.59
2023-01-29T10:55:12.803Z,97743.53
2023-01-29T10:57:56.438Z,97763.59
2023-01-29T11:00:27.015Z,97757.06
2023-01-29T11:02:53.675Z,97761.56
2023-01-29T11:05:33.180Z,97757.19
2023-01-29T11:08:11.660Z,97729.91
2023-01-29T11:10:44.444Z,97716.47
2023-01-29T11:13:14.972Z,97732.63
2023-01-29T11:33:12.891Z,97770.25
2023-01-29T11:35:39.478Z,97760.50
2023-01-29T11:38:08.479Z,97758.53
2023-01-29T11:40:40.229Z,97758.59
2023-01-29T11:43:20.067Z,97750.16
2023-01-29T11:45:51.437Z,97735.00
2023-01-29T11:48:21.337Z,97725.91
2023-01-29T11:50:53.673Z,97725.69
2023-01-29T11:53:37.439Z,97710.31
2023-01-29T11:56:15.762Z,97688.59
2023-01-29T11:58:43.335Z,97711.00
2023-01-29T12:01:10.883Z,97685.72
2023-01-29T12:03:43.814Z,97680.78
2023-01-29T12:06:22.187Z,97694.88
2023-01-29T12:09:01.367Z,97682.53
2023-01-29T12:11:32.966Z,97678.31
2023-01-29T12:14:05.100Z,97674.56
2023-01-29T12:16:50.456Z,97662.00
2023-01-29T12:19:31.262Z,97658.09
2023-01-29T12:22:06.603Z,97634.47
2023-01-29T12:24:44.566Z,97649.69
2023-01-29T12:27:31.395Z,97648.63
2023-01-29T12:30:20.435Z,97644.00
2023-01-29T12:32:59.603Z,97656.47
2023-01-29T12:35:35.027Z,97657.28
2023-01-29T12:38:13.165Z,97649.41
2023-01-29T12:40:48.780Z,97651.56
2023-01-29T12:43:23.917Z,97650.81
2023-01-29T12:45:53.888Z,97640.78
2023-01-29T12:48:39.523Z,97641.78
2023-01-29T12:51:19.379Z,97618.81
2023-01-29T12:53:57.267Z,97637.25
2023-01-29T12:56:32.612Z,97632.91
2023-01-29T12:59:04.727Z,97633.94
2023-01-29T13:02:00.182Z,97611.16
2023-01-29T13:04:50.409Z,97616.25
2023-01-29T13:07:24.750Z,97614.50
2023-01-29T13:09:57.212Z,97603.59
2023-01-29T13:12:24.492Z,97594.75
2023-01-29T13:15:05.640Z,97610.47
2023-01-29T13:17:44.550Z,97593.03
2023-01-29T13:20:28.035Z,97605.00
2023-01-29T13:23:01.089Z,97606.09
2023-01-29T13:25:27.726Z,97604.16
2023-01-29T13:27:54.413Z,97594.31
2023-01-29T13:30:25.095Z,97610.47
2023-01-29T13:32:54.312Z,97613.38
2023-01-29T13:35:22.886Z,97614.78
2023-01-29T13:37:52.641Z,97600.50
2023-01-29T13:40:27.705Z,97603.03
2023-01-29T13:42:57.310Z,97610.19
2023-01-29T13:45:24.896Z,97611.94
2023-01-29T13:47:52.988Z,97610.97
2023-01-29T13:50:21.870Z,97607.28
2023-01-29T13:52:58.843Z,97597.41
2023-01-29T13:55:31.450Z,97604.56
2023-01-29T13:58:02.796Z,97592.25
2023-01-29T14:00:35.476Z,97587.59
2023-01-29T14:03:05.217Z,97593.69
2023-01-29T14:05:31.863Z,97587.91
2023-01-29T14:08:02.161Z,97570.75
2023-01-29T14:10:36.370Z,97588.63
2023-01-29T14:13:11.640Z,97594.81
2023-01-29T14:15:40.060Z,97591.44
2023-01-29T14:18:12.632Z,97594.63
2023-01-29T14:20:46.265Z,97598.63
2023-01-29T14:23:22.627Z,97614.63
2023-01-29T14:25:49.481Z,97596.41
2023-01-29T14:28:26.918Z,97598.00
2023-01-29T14:30:53.671Z,97578.03
2023-01-29T14:33:28.004Z,97589.41
2023-01-29T14:35:57.696Z,97605.13
2023-01-29T14:38:27.864Z,97597.56
2023-01-29T14:41:05.859Z,97589.53
2023-01-29T14:43:32.540Z,97587.19
2023-01-29T14:46:34.291Z,97605.78
2023-01-29T14:49:01.425Z,97599.44
2023-01-29T14:51:34.443Z,97601.72
2023-01-29T14:54:26.722Z,97579.13
2023-01-29T14:56:58.611Z,97602.13
2023-01-29T14:59:40.102Z,97601.63
2023-01-29T15:02:26.958Z,97553.22
2023-01-29T15:04:59.638Z,97582.97
2023-01-29T15:07:51.328Z,97575.28
2023-01-29T15:10:23.410Z,97570.59
2023-01-29T15:13:01.901Z,97571.44
2023-01-29T15:15:46.289Z,97564.19
2023-01-29T15:18:15.452Z,97563.72
2023-01-29T15:20:43.995Z,97554.94
2023-01-29T15:23:27.576Z,97565.47
2023-01-29T15:25:57.200Z,97559.34
2023-01-29T15:28:24.241Z,97560.88
2023-01-29T15:30:55.448Z,97558.19
2023-01-29T15:33:22.399Z,97559.91
2023-01-29T15:35:51.653Z,97533.00
2023-01-29T15:38:22.487Z,97554.28
2023-01-29T15:40:57.163Z,97553.97
2023-01-29T15:43:26.009Z,97521.56
2023-01-29T15:45:56.474Z,97548.16
2023-01-29T15:48:32.880Z,97544.38
2023-01-29T15:51:00.006Z,97530.59
2023-01-29T15:53:35.011Z,97544.78
2023-01-29T15:56:01.812Z,97544.09
2023-01-29T15:58:32.904Z,97543.50
2023-01-29T16:01:01.993Z,97529.91
2023-01-29T16:03:32.525Z,97516.31
2023-01-29T16:06:00.332Z,97526.97
2023-01-29T16:08:27.935Z,97500.53
2023-01-29T16:11:00.700Z,97444.97
2023-01-29T16:13:33.896Z,97532.66
2023-01-29T16:16:20.234Z,97511.84
2023-01-29T16:18:59.550Z,97541.44
2023-01-29T16:21:36.143Z,97543.81
2023-01-29T16:24:09.645Z,97537.47
2023-01-29T16:26:44.761Z,97510.81
2023-01-29T16:29:14.702Z,97544.31
2023-01-29T16:31:44.483Z,97533.56
2023-01-29T16:34:21.147Z,97514.03
2023-01-29T16:36:49.276Z,97552.25
2023-01-29T16:39:22.824Z,97552.19
2023-01-29T16:42:09.666Z,97551.53
2023-01-29T16:44:40.303Z,97557.34
2023-01-29T16:47:12.991Z,97530.38
2023-01-29T16:49:39.498Z,97558.06
2023-01-29T16:52:32.863Z,97531.31
2023-01-29T16:55:02.559Z,97554.97
2023-01-29T16:57:33.087Z,97548.50
2023-01-29T17:00:03.233Z,97556.88
2023-01-29T17:02:33.380Z,97564.31
2023-01-29T17:05:18.592Z,97558.28
2023-01-29T17:07:46.420Z,97552.06
2023-01-29T17:10:19.129Z,97574.06
2023-01-29T17:12:54.084Z,97564.03
2023-01-29T17:15:46.199Z,97565.66
2023-01-29T17:18:17.814Z,97570.22
2023-01-29T17:20:44.297Z,97549.81
2023-01-29T17:23:10.803Z,97574.28
2023-01-29T17:25:37.814Z,97574.34
2023-01-29T17:28:04.637Z,97569.19
2023-01-29T17:30:34.756Z,97551.91
2023-01-29T17:33:02.858Z,97551.25
2023-01-29T17:35:29.405Z,97565.03
2023-01-29T17:37:55.888Z,97555.00
2023-01-29T17:40:37.034Z,97547.41
2023-01-29T17:43:03.493Z,97563.63
2023-01-29T17:45:30.576Z,97551.59
2023-01-29T17:47:57.049Z,97563.09
2023-01-29T17:50:27.569Z,97573.94
2023-01-29T17:52:54.100Z,97559.50
2023-01-29T17:55:20.711Z,97549.97
2023-01-29T17:57:47.253Z,97567.53
2023-01-29T18:00:22.750Z,97573.06
2023-01-29T18:02:49.371Z,97502.38
2023-01-29T18:05:17.157Z,97568.19
2023-01-29T18:07:45.867Z,97563.09
2023-01-29T18:10:21.401Z,97560.69
2023-01-29T18:12:47.952Z,97557.66
2023-01-29T18:15:15.515Z,97564.44
2023-01-29T18:17:43.217Z,97561.88
2023-01-29T18:20:22.975Z,97554.72
2023-01-29T18:22:49.635Z,97549.03
2023-01-29T18:25:16.607Z,97562.66
2023-01-29T18:27:43.907Z,97558.84
2023-01-29T18:30:11.392Z,97553.16
2023-01-29T18:32:38.074Z,97543.13
2023-01-29T18:35:06.082Z,97532.97
2023-01-29T18:37:33.303Z,97537.09
2023-01-29T18:39:59.878Z,97532.31
2023-01-29T18:42:26.439Z,97531.69
2023-01-29T18:44:52.891Z,97542.38
2023-01-29T18:47:19.484Z,97541.34
2023-01-29T18:49:46.124Z,97534.53
2023-01-29T18:52:12.558Z,97532.00
2023-01-29T18:54:38.955Z,97542.41
2023-01-29T18:57:13.389Z,97524.09
2023-01-29T18:59:51.891Z,97519.13
2023-01-29T19:02:19.406Z,97544.28
2023-01-29T19:04:46.508Z,97532.53
2023-01-29T19:07:14.720Z,97546.75
2023-01-29T19:09:42.154Z,97540.25
2023-01-29T19:12:08.999Z,97528.66
2023-01-29T19:14:35.433Z,97519.47
2023-01-29T19:17:01.919Z,97542.91
2023-01-29T19:19:28.795Z,97534.91
2023-01-29T19:21:55.408Z,97534.13
2023-01-29T19:24:22.381Z,97557.81
2023-01-29T19:26:49.891Z,97542.25
2023-01-29T19:29:17.674Z,97551.44
2023-01-29T19:31:44.215Z,97549.44
2023-01-29T19:34:10.757Z,97556.59
2023-01-29T19:36:37.342Z,97530.75
2023-01-29T19:39:04.624Z,97548.38
2023-01-29T19:41:31.147Z,97552.97
2023-01-29T19:43:57.638Z,97541.03
2023-01-29T19:46:24.163Z,97545.69
2023-01-29T19:48:50.633Z,97550.13
2023-01-29T19:51:17.171Z,97533.91
2023-01-29T19:53:44.164Z,97547.03
2023-01-29T19:56:16.368Z,97554.47
2023-01-29T19:58:43.494Z,97549.59
2023-01-29T20:01:16.190Z,97518.38
2023-01-29T20:03:46.324Z,97552.31
2023-01-29T20:06:15.373Z,97526.34
2023-01-29T20:08:41.837Z,97539.44
2023-01-29T20:11:09.822Z,97532.31
2023-01-29T20:13:36.312Z,97539.31
2023-01-29T20:16:03.908Z,97546.75
2023-01-29T20:18:30.766Z,97542.03
2023-01-29T20:20:57.607Z,97537.28
2023-01-29T20:23:37.111Z,97532.56
2023-01-29T20:26:05.922Z,97528.53
2023-01-29T20:28:32.713Z,97532.31
2023-01-29T20:30:59.268Z,97534.72
2023-01-29T20:33:26.669Z,97524.97
2023-01-29T20:35:57.634Z,97529.84
2023-01-29T20:38:30.147Z,97521.75
2023-01-29T20:41:02.945Z,97517.16
2023-01-29T20:43:29.427Z,97512.03
2023-01-29T20:45:59.495Z,97522.28
2023-01-29T20:48:26.519Z,97514.72
2023-01-29T20:50:54.095Z,97499.44
2023-01-29T20:53:20.587Z,97506.59
2023-01-29T20:55:47.264Z,97512.53
2023-01-29T20:58:13.937Z,97485.75
2023-01-29T21:00:41.351Z,97500.38
2023-01-29T21:03:07.856Z,97499.56
2023-01-29T21:05:34.344Z,97487.94
2023-01-29T21:08:00.869Z,97489.53
2023-01-29T21:10:27.352Z,97482.50
2023-01-29T21:12:54.646Z,97466.28
2023-01-29T21:15:21.301Z,97451.16
2023-01-29T21:17:48.056Z,97466.31
2023-01-29T21:20:14.944Z,97454.94
2023-01-29T21:22:43.868Z,97461.03
2023-01-29T21:25:10.875Z,97453.59
2023-01-29T21:27:37.472Z,97441.53
2023-01-29T21:30:04.522Z,97447.09
2023-01-29T21:32:31.175Z,97424.66
2023-01-29T21:34:57.700Z,97408.59
2023-01-29T21:37:24.187Z,97432.47
2023-01-29T21:39:50.699Z,97436.56
2023-01-29T21:42:36.000Z,97445.59
2023-01-29T21:45:02.569Z,97454.25
2023-01-29T21:47:29.041Z,97444.81
2023-01-29T21:49:55.524Z,97434.91
2023-01-29T21:52:22.151Z,97444.25
2023-01-29T21:54:48.976Z,97447.91
2023-01-29T21:57:16.521Z,97463.84
2023-01-29T21:59:43.506Z,97459.69
2023-01-29T22:02:15.042Z,97440.63
2023-01-29T22:04:42.620Z,97412.06
2023-01-29T22:07:10.781Z,97430.72
2023-01-29T22:09:37.772Z,97452.66
2023-01-29T22:12:06.551Z,97451.81
2023-01-29T22:14:33.268Z,97427.09
2023-01-29T22:16:59.948Z,97407.19
2023-01-29T22:19:26.503Z,97463.72
2023-01-29T22:21:53.233Z,97421.56
2023-01-29T22:24:20.820Z,97431.16
2023-01-29T22:26:49.393Z,97432.75
2023-01-29T22:29:17.024Z,97431.53
2023-01-29T22:31:44.267Z,97445.47
2023-01-29T22:34:11.692Z,97435.06
2023-01-29T22:36:38.944Z,97447.66
2023-01-29T22:39:07.553Z,97457.91
2023-01-29T22:41:34.465Z,97406.41
2023-01-29T22:44:01.145Z,97455.63
2023-01-29T22:46:27.789Z,97442.50
2023-01-29T22:48:54.579Z,97441.16
2023-01-29T22:51:21.223Z,97428.41
2023-01-29T22:53:55.615Z,97421.09
2023-01-29T22:56:25.667Z,97419.06
2023-01-29T22:58:53.602Z,97419.34
2023-01-29T23:17:54.434Z,97395.97
2023-01-29T23:20:21.716Z,97388.97
2023-01-29T23:22:48.843Z,97387.47
2023-01-29T23:25:15.625Z,97376.94
2023-01-29T23:27:42.205Z,97376.56
2023-01-29T23:30:09.405Z,97350.22
2023-01-29T23:32:36.066Z,97358.69
2023-01-29T23:35:02.659Z,97358.16
2023-01-29T23:37:29.195Z,97349.25
2023-01-29T23:39:55.725Z,97356.00
2023-01-29T23:42:22.255Z,97348.44
2023-01-29T23:44:48.753Z,97346.41
2023-01-29T23:47:15.307Z,97344.13
2023-01-29T23:49:41.862Z,97326.69
2023-01-29T23:52:08.395Z,97320.19
2023-01-29T23:54:34.884Z,97320.06
2023-01-29T23:57:01.446Z,97310.34
2023-01-29T23:59:28.973Z,97317.34
